createdAt,value
2018-07-14T00:00:10.653Z,66.30
2018-07-14T00:02:39.159Z,66.50
2018-07-14T00:05:07.735Z,66.40
2018-07-14T00:07:36.233Z,66.80
2018-07-14T00:10:04.822Z,66.80
2018-07-14T00:12:33.261Z,66.90
2018-07-14T00:15:01.770Z,67.30
2018-07-14T00:17:30.268Z,67.50
2018-07-14T00:19:58.823Z,67.90
2018-07-14T00:22:27.308Z,68.50
2018-07-14T00:24:55.819Z,68.50
2018-07-14T00:27:24.438Z,68.50
2018-07-14T00:29:52.995Z,68.40
2018-07-14T00:32:21.465Z,68.40
2018-07-14T00:34:50.591Z,68.50
2018-07-14T00:37:19.213Z,68.50
2018-07-14T00:39:47.718Z,68.50
2018-07-14T00:42:16.173Z,68.10
2018-07-14T00:44:44.701Z,68.60
2018-07-14T00:49:41.487Z,69.20
2018-07-14T00:52:09.957Z,68.70
2018-07-14T00:54:39.431Z,69.10
2018-07-14T00:57:07.903Z,69.50
2018-07-14T00:59:36.596Z,69.70
2018-07-14T01:02:05.323Z,69.90
2018-07-14T01:04:33.822Z,69.90
2018-07-14T01:07:02.359Z,69.90
2018-07-14T01:09:30.901Z,69.90
2018-07-14T01:11:59.360Z,70.00
2018-07-14T01:14:27.835Z,70.30
2018-07-14T01:16:56.350Z,70.30
2018-07-14T01:19:24.997Z,70.60
2018-07-14T01:21:53.521Z,71.10
2018-07-14T01:24:22.026Z,71.10
2018-07-14T01:26:50.695Z,70.90
2018-07-14T01:29:19.203Z,71.00
2018-07-14T01:31:47.729Z,71.10
2018-07-14T01:34:16.250Z,70.80
2018-07-14T01:36:44.763Z,71.30
2018-07-14T01:39:13.247Z,70.80
2018-07-14T01:41:41.785Z,71.30
2018-07-14T01:44:11.053Z,71.50
2018-07-14T01:46:39.561Z,71.50
2018-07-14T01:49:08.015Z,72.10
2018-07-14T01:51:36.571Z,72.10
2018-07-14T01:54:05.065Z,71.70
2018-07-14T01:56:33.857Z,72.50
2018-07-14T01:59:02.317Z,72.50
2018-07-14T02:01:30.818Z,72.50
2018-07-14T02:03:59.299Z,72.50
2018-07-14T02:06:28.083Z,72.50
2018-07-14T02:08:56.543Z,72.50
2018-07-14T02:13:53.314Z,72.50
2018-07-14T02:16:22.501Z,72.40
2018-07-14T02:18:51.021Z,72.80
2018-07-14T02:21:19.704Z,72.60
2018-07-14T02:23:48.162Z,72.50
2018-07-14T02:26:16.924Z,73.00
2018-07-14T02:28:45.413Z,72.80
2018-07-14T02:31:13.886Z,73.20
2018-07-14T02:33:42.377Z,73.50
2018-07-14T02:36:11.270Z,73.40
2018-07-14T02:38:39.822Z,74.10
2018-07-14T02:41:08.381Z,73.40
2018-07-14T02:43:36.892Z,73.60
2018-07-14T02:46:05.706Z,73.80
2018-07-14T02:48:34.220Z,74.60
2018-07-14T02:51:02.706Z,74.30
2018-07-14T02:53:31.229Z,74.30
2018-07-14T02:55:59.709Z,74.60
2018-07-14T02:58:28.228Z,74.70
2018-07-14T03:00:56.758Z,75.10
2018-07-14T03:03:25.286Z,74.90
2018-07-14T03:05:53.794Z,75.20
2018-07-14T03:08:22.247Z,75.10
2018-07-14T03:10:50.766Z,75.20
2018-07-14T03:13:19.250Z,75.30
2018-07-14T03:15:47.759Z,75.60
2018-07-14T03:18:16.206Z,75.60
2018-07-14T03:20:44.734Z,75.60
2018-07-14T03:23:13.191Z,75.70
2018-07-14T03:25:41.736Z,75.90
2018-07-14T03:28:10.382Z,76.50
2018-07-14T03:30:38.909Z,75.90
2018-07-14T03:33:07.452Z,75.50
2018-07-14T03:35:35.941Z,76.40
2018-07-14T03:38:04.429Z,76.50
2018-07-14T03:40:32.980Z,76.40
2018-07-14T03:43:01.464Z,76.40
2018-07-14T03:45:29.954Z,76.60
2018-07-14T03:47:58.401Z,76.00
2018-07-14T03:50:26.917Z,75.80
2018-07-14T03:52:55.394Z,76.50
2018-07-14T03:55:23.982Z,76.10
2018-07-14T03:57:52.458Z,76.30
2018-07-14T04:00:20.913Z,76.10
2018-07-14T04:02:49.426Z,76.40
2018-07-14T04:05:17.920Z,75.80
2018-07-14T04:07:46.444Z,75.80
2018-07-14T04:10:14.928Z,75.80
2018-07-14T04:12:43.447Z,75.80
2018-07-14T04:15:11.911Z,75.90
2018-07-14T04:17:40.429Z,75.40
2018-07-14T04:20:09.029Z,75.70
2018-07-14T04:22:39.819Z,75.70
2018-07-14T04:25:08.276Z,76.00
2018-07-14T04:27:36.802Z,76.10
2018-07-14T04:30:05.490Z,76.40
2018-07-14T04:32:34.014Z,75.70
2018-07-14T04:35:02.503Z,76.10
2018-07-14T04:37:31.059Z,76.30
2018-07-14T04:39:59.551Z,75.80
2018-07-14T04:42:28.096Z,75.00
2018-07-14T04:44:56.556Z,75.30
2018-07-14T04:47:25.229Z,75.10
2018-07-14T04:49:53.737Z,74.80
2018-07-14T04:52:22.200Z,74.80
2018-07-14T04:54:50.888Z,73.80
2018-07-14T04:57:19.394Z,73.10
2018-07-14T04:59:47.906Z,73.30
2018-07-14T05:02:16.404Z,72.90
2018-07-14T05:04:44.936Z,72.50
2018-07-14T05:07:13.405Z,72.00
2018-07-14T05:09:41.910Z,71.70
2018-07-14T05:12:10.418Z,71.50
2018-07-14T05:14:38.990Z,71.40
2018-07-14T05:19:36.181Z,70.80
2018-07-14T05:22:05.021Z,70.60
2018-07-14T05:24:33.833Z,70.30
2018-07-14T05:27:02.352Z,70.40
2018-07-14T05:29:30.888Z,69.70
2018-07-14T05:31:59.424Z,69.40
2018-07-14T05:34:28.386Z,69.90
2018-07-14T05:36:56.859Z,69.50
2018-07-14T05:39:25.384Z,69.50
2018-07-14T05:41:53.912Z,69.50
2018-07-14T05:44:22.521Z,69.50
2018-07-14T05:46:51.074Z,69.50
2018-07-14T05:49:19.551Z,69.50
2018-07-14T05:51:48.235Z,69.70
2018-07-14T05:56:45.205Z,69.70
2018-07-14T05:59:13.684Z,69.70
2018-07-14T06:01:42.608Z,69.50
2018-07-14T06:04:11.213Z,69.50
2018-07-14T06:06:39.734Z,69.00
2018-07-14T06:09:08.663Z,69.20
2018-07-14T06:11:37.224Z,68.60
2018-07-14T06:14:05.814Z,68.80
2018-07-14T06:16:34.308Z,68.40
2018-07-14T06:19:02.902Z,67.90
2018-07-14T06:21:31.499Z,68.50
2018-07-14T06:24:00.141Z,67.80
2018-07-14T06:26:28.647Z,68.20
2018-07-14T06:28:57.132Z,68.00
2018-07-14T06:31:25.637Z,67.90
2018-07-14T06:33:54.147Z,67.60
2018-07-14T06:36:22.738Z,67.90
2018-07-14T06:38:51.263Z,67.80
2018-07-14T06:41:19.876Z,68.40
2018-07-14T06:43:48.366Z,68.70
2018-07-14T06:46:17.110Z,68.70
2018-07-14T06:48:45.586Z,68.80
2018-07-14T06:51:14.190Z,68.70
2018-07-14T06:53:42.755Z,69.20
2018-07-14T06:56:11.583Z,69.80
2018-07-14T06:58:40.371Z,69.90
2018-07-14T07:01:09.130Z,69.90
2018-07-14T07:03:37.693Z,69.80
2018-07-14T07:08:34.884Z,68.70
2018-07-14T07:11:03.449Z,67.70
2018-07-14T07:13:32.028Z,68.00
2018-07-14T07:16:00.504Z,67.70
2018-07-14T07:18:29.010Z,67.50
2018-07-14T07:20:57.792Z,67.10
2018-07-14T07:23:26.316Z,66.90
2018-07-14T07:25:54.906Z,66.30
2018-07-14T07:28:23.551Z,66.50
2018-07-14T07:30:52.017Z,66.50
2018-07-14T07:33:20.599Z,66.50
2018-07-14T07:35:49.126Z,66.50
2018-07-14T07:38:17.681Z,66.20
2018-07-14T07:40:46.135Z,65.90
2018-07-14T07:43:14.673Z,65.90
2018-07-14T07:45:43.283Z,65.60
2018-07-14T07:48:11.809Z,65.70
2018-07-14T07:50:40.327Z,64.90
2018-07-14T07:53:08.878Z,65.10
2018-07-14T07:55:37.390Z,65.30
2018-07-14T07:58:05.948Z,65.80
2018-07-14T08:00:34.447Z,65.70
2018-07-14T08:03:03.066Z,65.50
2018-07-14T08:05:31.551Z,65.60
2018-07-14T08:08:00.080Z,65.60
2018-07-14T08:10:28.546Z,65.30
2018-07-14T08:12:57.099Z,64.90
2018-07-14T08:15:25.674Z,64.50
2018-07-14T08:17:54.166Z,63.70
2018-07-14T08:20:22.769Z,64.10
2018-07-14T08:22:51.579Z,63.20
2018-07-14T08:25:20.070Z,63.00
2018-07-14T08:27:48.565Z,62.90
2018-07-14T08:30:17.103Z,62.70
2018-07-14T08:32:45.584Z,63.10
2018-07-14T08:35:14.123Z,62.90
2018-07-14T08:37:42.604Z,62.90
2018-07-14T08:40:11.136Z,63.00
2018-07-14T08:42:39.642Z,63.10
2018-07-14T08:45:08.209Z,63.00
2018-07-14T08:47:36.913Z,63.00
2018-07-14T08:50:05.422Z,62.40
2018-07-14T08:52:33.969Z,63.00
2018-07-14T08:55:02.482Z,62.00
2018-07-14T08:57:31.185Z,62.40
2018-07-14T08:59:59.749Z,62.20
2018-07-14T09:02:28.274Z,62.00
2018-07-14T09:04:56.717Z,61.90
2018-07-14T09:07:25.293Z,61.30
2018-07-14T09:09:53.783Z,61.50
2018-07-14T09:12:23.076Z,61.50
2018-07-14T09:14:51.703Z,61.20
2018-07-14T09:17:20.471Z,61.20
2018-07-14T09:19:49.040Z,61.10
2018-07-14T09:22:18.148Z,61.30
2018-07-14T09:24:49.123Z,61.40
2018-07-14T09:27:18.879Z,61.00
2018-07-14T09:29:47.534Z,60.50
2018-07-14T09:32:16.023Z,60.10
2018-07-14T09:34:45.419Z,60.10
2018-07-14T09:37:15.546Z,60.40
2018-07-14T09:39:44.128Z,61.10
2018-07-14T09:42:12.903Z,60.50
2018-07-14T09:44:41.474Z,60.20
2018-07-14T09:49:38.177Z,60.50
2018-07-14T09:52:08.299Z,60.40
2018-07-14T09:54:36.805Z,60.10
2018-07-14T09:57:06.059Z,59.40
2018-07-14T09:59:34.617Z,58.20
2018-07-14T10:02:03.743Z,57.90
2018-07-14T10:04:32.333Z,57.80
2018-07-14T10:07:01.074Z,58.70
2018-07-14T10:09:29.619Z,58.30
2018-07-14T10:11:58.115Z,58.10
2018-07-14T10:14:26.644Z,58.00
2018-07-14T10:16:55.194Z,58.10
2018-07-14T10:19:23.902Z,58.00
2018-07-14T10:21:52.722Z,58.60
2018-07-14T10:24:21.308Z,57.90
2018-07-14T10:26:49.842Z,58.00
2018-07-14T10:29:20.439Z,58.20
2018-07-14T10:31:48.951Z,57.80
2018-07-14T10:34:17.508Z,58.10
2018-07-14T10:36:46.004Z,58.10
2018-07-14T10:39:14.520Z,57.60
2018-07-14T10:41:43.013Z,57.30
2018-07-14T10:44:11.575Z,56.30
2018-07-14T10:46:40.064Z,56.30
2018-07-14T10:49:08.627Z,56.80
2018-07-14T10:51:37.106Z,57.50
2018-07-14T10:54:05.674Z,57.60
2018-07-14T10:59:02.335Z,57.80
2018-07-14T11:01:30.890Z,57.80
2018-07-14T11:03:59.561Z,57.90
2018-07-14T11:06:28.115Z,57.40
2018-07-14T11:08:56.839Z,57.90
2018-07-14T11:11:25.935Z,57.20
2018-07-14T11:13:54.415Z,55.80
2018-07-14T11:16:22.906Z,56.40
2018-07-14T11:18:51.410Z,56.50
2018-07-14T11:21:19.950Z,56.80
2018-07-14T11:23:48.713Z,56.60
2018-07-14T11:26:17.239Z,56.70
2018-07-14T11:28:45.783Z,56.90
2018-07-14T11:31:15.599Z,56.90
2018-07-14T11:33:46.443Z,57.60
2018-07-14T11:36:14.913Z,57.60
2018-07-14T11:38:43.756Z,57.60
2018-07-14T11:41:12.499Z,57.00
2018-07-14T11:43:41.067Z,57.10
2018-07-14T11:46:09.638Z,57.30
2018-07-14T11:48:38.147Z,56.80
2018-07-14T11:51:07.026Z,57.40
2018-07-14T11:53:35.566Z,57.00
2018-07-14T11:56:04.510Z,56.60
2018-07-14T11:58:33.033Z,55.30
2018-07-14T12:01:02.060Z,55.90
2018-07-14T12:03:30.579Z,55.70
2018-07-14T12:05:59.310Z,56.00
2018-07-14T12:08:27.790Z,55.30
2018-07-14T12:10:56.515Z,54.70
2018-07-14T12:13:25.125Z,55.20
2018-07-14T12:15:53.591Z,55.60
2018-07-14T12:18:22.161Z,55.50
2018-07-14T12:20:51.299Z,55.00
2018-07-14T12:23:19.822Z,54.30
2018-07-14T12:25:48.338Z,54.40
2018-07-14T12:28:16.803Z,54.20
2018-07-14T12:30:45.398Z,53.70
2018-07-14T12:33:13.899Z,54.10
2018-07-14T12:35:42.439Z,54.50
2018-07-14T12:38:10.982Z,54.50
2018-07-14T12:40:39.501Z,54.80
2018-07-14T12:43:08.011Z,55.00
2018-07-14T12:45:36.877Z,54.10
2018-07-14T12:48:05.763Z,54.20
2018-07-14T12:50:34.394Z,54.20
2018-07-14T12:53:02.907Z,54.40
2018-07-14T12:55:32.714Z,54.40
2018-07-14T12:58:01.330Z,53.30
2018-07-14T13:00:36.478Z,51.60
2018-07-14T13:03:05.080Z,49.80
2018-07-14T13:05:34.773Z,47.70
2018-07-14T13:08:03.362Z,46.40
2018-07-14T13:10:31.917Z,44.70
2018-07-14T13:13:00.501Z,41.30
2018-07-14T13:15:29.307Z,39.60
2018-07-14T13:17:57.848Z,37.90
2018-07-14T13:20:26.335Z,36.40
2018-07-14T13:22:55.519Z,36.80
2018-07-14T13:25:24.039Z,37.40
2018-07-14T13:27:52.644Z,34.60
2018-07-14T13:30:21.120Z,34.10
2018-07-14T13:32:49.661Z,34.00
2018-07-14T13:35:18.261Z,32.80
2018-07-14T13:37:46.894Z,30.00
2018-07-14T13:40:15.375Z,30.40
2018-07-14T13:42:43.909Z,30.30
2018-07-14T13:45:15.285Z,30.80
2018-07-14T13:47:44.172Z,29.50
2018-07-14T13:50:12.681Z,28.70
2018-07-14T13:52:41.544Z,27.50
2018-07-14T13:55:10.607Z,26.30
2018-07-14T14:00:08.505Z,26.20
2018-07-14T14:02:37.337Z,25.90
2018-07-14T14:05:06.354Z,25.80
2018-07-14T14:07:35.368Z,25.00
2018-07-14T14:10:03.972Z,24.80
2018-07-14T14:12:32.502Z,25.10
2018-07-14T14:15:01.052Z,25.60
2018-07-14T14:17:29.631Z,24.80
2018-07-14T14:19:58.229Z,24.80
2018-07-14T14:22:27.411Z,23.00
2018-07-14T14:24:55.867Z,22.70
2018-07-14T14:29:52.571Z,22.20
2018-07-14T14:32:21.099Z,21.60
2018-07-14T14:34:49.606Z,22.20
2018-07-14T14:37:18.131Z,20.20
2018-07-14T14:39:46.592Z,20.60
2018-07-14T14:42:16.159Z,19.70
2018-07-14T14:44:44.654Z,20.00
2018-07-14T14:47:13.174Z,19.10
2018-07-14T14:49:41.642Z,18.40
2018-07-14T14:52:10.165Z,18.50
2018-07-14T14:57:07.139Z,17.90
2018-07-14T14:59:35.607Z,18.10
2018-07-14T15:02:04.088Z,16.70
2018-07-14T15:04:32.601Z,17.60
2018-07-14T15:07:01.256Z,17.20
2018-07-14T15:09:29.796Z,17.10
2018-07-14T15:11:58.314Z,15.20
2018-07-14T15:14:26.802Z,15.60
2018-07-14T15:16:55.343Z,15.10
2018-07-14T15:19:23.843Z,14.80
2018-07-14T15:21:52.524Z,14.50
2018-07-14T15:24:21.003Z,13.80
2018-07-14T15:26:49.551Z,12.40
2018-07-14T15:29:18.658Z,12.40
2018-07-14T15:31:47.942Z,13.20
2018-07-14T15:34:16.411Z,13.50
2018-07-14T15:36:44.932Z,15.40
2018-07-14T15:39:14.065Z,12.80
2018-07-14T15:41:42.963Z,13.60
2018-07-14T15:44:11.468Z,13.50
2018-07-14T15:46:40.000Z,13.80
2018-07-14T15:49:08.481Z,12.00
2018-07-14T15:51:36.999Z,12.50
2018-07-14T15:54:06.374Z,14.30
2018-07-14T15:56:34.871Z,14.00
2018-07-14T15:59:03.443Z,14.30
2018-07-14T16:01:32.002Z,13.60
2018-07-14T16:04:01.379Z,12.80
2018-07-14T16:06:30.010Z,12.10
2018-07-14T16:08:58.854Z,12.30
2018-07-14T16:11:27.358Z,11.70
2018-07-14T16:13:55.928Z,12.40
2018-07-14T16:16:24.558Z,12.70
2018-07-14T16:18:53.069Z,12.30
2018-07-14T16:21:21.763Z,11.10
2018-07-14T16:23:50.346Z,11.80
2018-07-14T16:26:18.827Z,11.50
2018-07-14T16:28:47.341Z,11.70
2018-07-14T16:31:15.993Z,13.00
2018-07-14T16:36:12.689Z,16.80
2018-07-14T16:38:41.670Z,19.00
2018-07-14T16:41:10.375Z,18.90
2018-07-14T16:43:38.946Z,20.00
2018-07-14T16:46:07.781Z,20.80
2018-07-14T16:48:36.711Z,21.80
2018-07-14T16:51:05.399Z,23.00
2018-07-14T16:53:33.949Z,23.50
2018-07-14T16:56:02.532Z,24.90
2018-07-14T16:58:31.483Z,25.70
2018-07-14T17:01:00.859Z,26.80
2018-07-14T17:03:29.339Z,26.60
2018-07-14T17:05:57.875Z,26.40
2018-07-14T17:08:26.399Z,26.20
2018-07-14T17:10:54.960Z,26.60
2018-07-14T17:13:24.381Z,27.70
2018-07-14T17:15:52.878Z,28.40
2018-07-14T17:18:21.374Z,28.40
2018-07-14T17:20:49.933Z,28.80
2018-07-14T17:23:18.485Z,29.30
2018-07-14T17:25:47.063Z,29.80
2018-07-14T17:28:15.603Z,30.20
2018-07-14T17:30:44.118Z,30.80
2018-07-14T17:33:12.617Z,31.00
2018-07-14T17:35:41.122Z,31.10
2018-07-14T17:38:09.589Z,31.00
2018-07-14T17:40:38.105Z,31.10
2018-07-14T17:43:07.059Z,31.50
2018-07-14T17:45:35.574Z,32.20
2018-07-14T17:48:04.257Z,32.40
2018-07-14T17:50:32.779Z,32.80
2018-07-14T17:53:02.099Z,33.20
2018-07-14T17:55:30.775Z,33.40
2018-07-14T17:57:59.497Z,33.80
2018-07-14T18:00:28.042Z,34.20
2018-07-14T18:02:56.745Z,34.70
2018-07-14T18:07:53.450Z,35.00
2018-07-14T18:10:21.942Z,35.40
2018-07-14T18:12:50.699Z,35.70
2018-07-14T18:15:19.165Z,35.90
2018-07-14T18:17:47.703Z,36.20
2018-07-14T18:20:16.999Z,37.30
2018-07-14T18:22:45.611Z,37.20
2018-07-14T18:25:14.327Z,37.20
2018-07-14T18:27:42.861Z,37.10
2018-07-14T18:30:11.417Z,37.10
2018-07-14T18:32:39.969Z,37.00
2018-07-14T18:37:36.719Z,36.90
2018-07-14T18:40:05.692Z,36.80
2018-07-14T18:42:34.525Z,37.20
2018-07-14T18:45:03.129Z,37.60
2018-07-14T18:47:31.779Z,37.90
2018-07-14T18:50:00.343Z,38.20
2018-07-14T18:52:29.156Z,38.80
2018-07-14T18:54:57.599Z,39.20
2018-07-14T18:57:26.653Z,39.30
2018-07-14T18:59:55.174Z,40.20
2018-07-14T19:02:23.711Z,39.90
2018-07-14T19:04:52.264Z,40.40
2018-07-14T19:07:20.783Z,40.70
2018-07-14T19:09:49.290Z,41.00
2018-07-14T19:12:17.790Z,41.80
2018-07-14T19:14:46.326Z,42.10
2018-07-14T19:17:14.827Z,42.30
2018-07-14T19:19:43.382Z,42.60
2018-07-14T19:22:12.268Z,42.80
2018-07-14T19:24:40.782Z,42.70
2018-07-14T19:27:09.322Z,43.70
2018-07-14T19:29:38.487Z,44.00
2018-07-14T19:32:07.514Z,44.10
2018-07-14T19:34:36.013Z,44.80
2018-07-14T19:37:04.614Z,45.10
2018-07-14T19:39:33.110Z,45.40
2018-07-14T19:42:01.904Z,45.80
2018-07-14T19:44:30.365Z,46.10
2018-07-14T19:46:58.958Z,46.60
2018-07-14T19:49:28.181Z,47.60
2018-07-14T19:51:56.915Z,47.70
2018-07-14T19:54:25.532Z,48.90
2018-07-14T19:56:54.049Z,48.80
2018-07-14T19:59:22.535Z,48.80
2018-07-14T20:01:51.053Z,48.70
2018-07-14T20:04:19.564Z,48.70
2018-07-14T20:06:48.100Z,48.60
2018-07-14T20:09:16.627Z,48.50
2018-07-14T20:11:45.249Z,48.40
2018-07-14T20:14:13.712Z,48.40
2018-07-14T20:16:42.306Z,48.80
2018-07-14T20:19:10.787Z,49.00
2018-07-14T20:21:39.474Z,49.10
2018-07-14T20:24:07.960Z,49.90
2018-07-14T20:29:05.108Z,50.20
2018-07-14T20:31:33.750Z,50.70
2018-07-14T20:34:02.257Z,50.90
2018-07-14T20:36:30.804Z,51.70
2018-07-14T20:39:00.100Z,51.90
2018-07-14T20:41:28.666Z,51.90
2018-07-14T20:43:57.155Z,52.50
2018-07-14T20:46:25.676Z,52.50
2018-07-14T20:48:54.202Z,53.50
2018-07-14T20:51:23.014Z,53.80
2018-07-14T20:53:51.552Z,54.10
2018-07-14T20:56:20.327Z,54.10
2018-07-14T20:58:49.385Z,54.10
2018-07-14T21:01:18.475Z,54.10
2018-07-14T21:03:47.034Z,54.20
2018-07-14T21:06:15.585Z,54.20
2018-07-14T21:08:44.301Z,54.10
2018-07-14T21:13:41.024Z,55.40
2018-07-14T21:16:09.497Z,55.70
2018-07-14T21:18:38.197Z,56.20
2018-07-14T21:21:07.249Z,56.10
2018-07-14T21:23:35.770Z,56.20
2018-07-14T21:26:04.486Z,56.00
2018-07-14T21:28:32.961Z,56.80
2018-07-14T21:31:01.925Z,56.90
2018-07-14T21:33:30.957Z,56.60
2018-07-14T21:35:59.505Z,56.80
2018-07-14T21:38:28.217Z,56.80
2018-07-14T21:40:56.694Z,56.90
2018-07-14T21:43:25.894Z,57.30
2018-07-14T21:45:54.810Z,57.50
2018-07-14T21:48:23.347Z,57.60
2018-07-14T21:50:51.963Z,57.90
2018-07-14T21:53:20.405Z,58.20
2018-07-14T21:55:48.949Z,58.30
2018-07-14T21:58:17.517Z,58.40
2018-07-14T22:01:51.593Z,59.00
2018-07-14T22:04:21.166Z,59.60
2018-07-14T22:06:50.470Z,59.70
2018-07-14T22:09:18.997Z,60.00
2018-07-14T22:11:47.534Z,60.00
2018-07-14T22:14:16.035Z,60.00
2018-07-14T22:16:44.551Z,59.90
2018-07-14T22:19:13.009Z,59.80
2018-07-14T22:21:41.640Z,59.80
2018-07-14T22:24:10.158Z,60.00
2018-07-14T22:26:38.678Z,60.60
2018-07-14T22:29:07.142Z,60.60
2018-07-14T22:31:35.667Z,61.00
2018-07-14T22:34:04.223Z,61.20
2018-07-14T22:36:32.739Z,61.30
2018-07-14T22:39:01.209Z,61.70
2018-07-14T22:41:29.843Z,61.70
2018-07-14T22:43:58.309Z,61.90
2018-07-14T22:46:26.876Z,61.80
2018-07-14T22:48:55.333Z,62.10
2018-07-14T22:51:23.882Z,62.00
2018-07-14T22:53:52.370Z,62.00
2018-07-14T22:56:21.290Z,62.20
2018-07-14T23:01:18.139Z,62.60
2018-07-14T23:03:46.645Z,62.50
2018-07-14T23:06:15.147Z,62.60
2018-07-14T23:08:43.704Z,62.80
2018-07-14T23:11:12.270Z,63.20
2018-07-14T23:13:40.840Z,63.40
2018-07-14T23:16:09.320Z,63.40
2018-07-14T23:18:37.882Z,63.90
2018-07-14T23:21:07.013Z,63.80
2018-07-14T23:23:35.579Z,63.60
2018-07-14T23:26:05.048Z,63.20
2018-07-14T23:28:33.609Z,63.20
2018-07-14T23:31:02.174Z,63.90
2018-07-14T23:33:30.720Z,63.90
2018-07-14T23:35:59.451Z,63.90
2018-07-14T23:40:56.366Z,64.30
2018-07-14T23:43:25.082Z,64.40
2018-07-14T23:45:53.621Z,64.70
2018-07-14T23:48:22.174Z,65.10
2018-07-14T23:50:50.738Z,64.80
2018-07-14T23:53:19.242Z,65.40
2018-07-14T23:55:47.694Z,65.40
2018-07-14T23:58:16.235Z,65.50
